Time;durP1;ratioP1;P1;durP2;ratioP2;P2;SDS_P1;SDS_P2;PMS_P1;PMS_P2;Temp;Humidity;BMP_temperature;BMP_pressure;BME280_temperature;BME280_humidity;BME280_pressure;Samples;Min_cycle;Max_cycle;Signal;HPM_P1;HPM_P2
2023/10/23 00:00:06;;;;;;;;;;;;;;;16.58;88.98;99579.88;347928;28;1306;-80
2023/10/23 00:00:16;;;;;;;;;;;;;;;16.59;88.99;99581.56;346494;28;975;-80
2023/10/23 00:00:27;;;;;;;;;;;;;;;16.59;88.53;99570.16;346247;28;1189;-80
2023/10/23 00:00:37;;;;;;;;;;;;;;;16.60;88.87;99580.63;348790;28;1331;-80
2023/10/23 00:00:47;;;;;;;;;;;;;;;16.61;88.62;99573.56;351662;28;1272;-80
2023/10/23 00:00:58;;;;;;;;;;;;;;;16.60;88.82;99569.22;347657;28;1372;-80
2023/10/23 00:01:08;;;;;;;;;;;;;;;16.61;88.88;99579.69;344730;28;1311;-80
2023/10/23 00:01:18;;;;;;;;;;;;;;;16.61;88.83;99573.56;345289;28;1383;-80
2023/10/23 00:01:36;;;;;;;;;;;;;;;16.61;88.77;99573.56;346150;28;1169;-80
2023/10/23 00:01:46;;;;;;;;;;;;;;;16.62;88.71;99570.81;343932;28;864;-80
2023/10/23 00:01:56;;;;;;;;;;;;;;;16.62;88.85;99580.53;342459;28;1234;-80
2023/10/23 00:02:08;;;;;;;;;;;;;;;16.60;88.85;99572.72;342159;28;1227;-80
2023/10/23 00:02:18;;;;;;;;;;;;;;;16.62;88.77;99583.19;341116;29;1247;-80
2023/10/23 00:02:30;;;;;;;;;;;;;;;16.63;88.78;99576.94;342483;28;1182;-80
2023/10/23 00:02:40;;;;;;;;;;;;;;;16.62;88.67;99577.88;344373;28;1367;-80
2023/10/23 00:02:50;;;;;;;;;;;;;;;16.61;88.63;99578.84;342165;28;1324;-80
2023/10/23 00:03:00;;;;;;;;;;;;;;;16.60;88.70;99569.22;339583;29;1233;-80
2023/10/23 00:03:11;;;;;;;;;;;;;;;16.60;88.68;99579.78;342517;28;3354;-80
2023/10/23 00:03:21;;;;;;;;;;;;;;;16.56;88.81;99576.50;344098;28;5561;-80
2023/10/23 00:03:31;;;;;;;;;;;;;;;16.55;88.91;99576.59;341610;28;5751;-80
2023/10/23 00:03:41;;;;;;;;;;;;;;;16.53;89.00;99574.06;340826;29;1313;-80
2023/10/23 00:03:52;;;;;;;;;;;;;;;16.53;88.75;99570.56;338378;29;3473;-80
2023/10/23 00:04:02;;;;;;;;;;;;;;;16.50;88.90;99576.03;338776;29;1988;-80
2023/10/23 00:04:12;;;;;;;;;;;;;;;16.49;89.00;99569.06;339067;29;1443;-80
2023/10/23 00:04:22;;;;;;;;;;;;;;;16.48;88.96;99568.22;338498;29;1377;-80
2023/10/23 00:04:33;;;;;;;;;;;;;;;16.48;89.23;99570.88;342752;28;1174;-80
2023/10/23 00:04:43;;;;;;;;;;;;;;;16.48;89.09;99572.66;339436;29;1270;-80
2023/10/23 00:04:53;;;;;;;;;;;;;;;16.47;89.09;99576.25;338192;29;1199;-80
2023/10/23 00:05:04;;;;;;;;;;;;;;;16.46;89.10;99574.59;338111;29;1265;-80
2023/10/23 00:05:14;;;;;;;;;;;;;;;16.46;89.21;99574.59;338353;29;1364;-80
2023/10/23 00:05:25;;;;;;;;;;;;;;;16.46;89.29;99574.59;335403;29;1701;-80
2023/10/23 00:05:35;;;;;;;;;;;;;;;16.47;89.27;99570.97;332967;29;2011;-80
2023/10/23 00:05:45;;;;;;;;;;;;;;;16.47;89.39;99571.81;330745;29;1314;-80
2023/10/23 00:05:55;;;;;;;;;;;;;;;16.46;89.36;99570.13;333950;29;1750;-80
2023/10/23 00:06:06;;;;;;;;;;;;;;;16.45;89.23;99572.88;335023;29;2219;-81
2023/10/23 00:06:16;;;;;;;;;;;;;;;16.45;89.37;99572.88;336114;29;1235;-80
2023/10/23 00:06:26;;;;;;;;;;;;;;;16.45;89.70;99572.88;334880;29;1612;-80
2023/10/23 00:06:36;;;;;;;;;;;;;;;16.43;89.53;99574.78;335682;29;1087;-80
2023/10/23 00:06:47;;;;;;;;;;;;;;;16.40;89.63;99569.69;337459;29;893;-80
2023/10/23 00:06:57;;;;;;;;;;;;;;;16.40;89.70;99573.19;337017;29;1427;-80
2023/10/23 00:07:07;;;;;;;;;;;;;;;16.39;89.69;99574.13;335974;29;1691;-80
2023/10/23 00:07:17;;;;;;;;;;;;;;;16.40;89.78;99574.97;334405;29;1336;-80
2023/10/23 00:07:28;;;;;;;;;;;;;;;16.41;89.67;99569.59;334965;29;2254;-80
2023/10/23 00:07:38;;;;;;;;;;;;;;;16.41;89.75;99571.41;335060;29;2707;-80
2023/10/23 00:07:48;;;;;;;;;;;;;;;16.41;89.71;99569.59;332771;29;1207;-80
2023/10/23 00:07:58;;;;;;;;;;;;;;;16.41;89.81;99561.69;332456;29;2357;-80
2023/10/23 00:08:09;;;;;;;;;;;;;;;16.41;89.43;99566.13;331611;29;2371;-80
2023/10/23 00:08:19;;;;;;;;;;;;;;;16.42;89.88;99567.81;328778;30;1369;-80
2023/10/23 00:08:29;;;;;;;;;;;;;;;16.43;89.62;99574.78;328357;29;3126;-80
2023/10/23 00:08:40;;;;;;;;;;;;;;;16.41;89.55;99569.59;325176;30;5025;-80
2023/10/23 00:08:50;;;;;;;;;;;;;;;16.42;89.61;99575.72;324091;30;1201;-80
2023/10/23 00:09:00;;;;;;;;;;;;;;;16.42;89.60;99567.81;323639;30;1373;-80
2023/10/23 00:09:11;;;;;;;;;;;;;;;16.42;89.82;99578.38;321940;30;3563;-80
2023/10/23 00:09:21;;;;;;;;;;;;;;;16.41;89.72;99572.25;320934;30;2709;-80
2023/10/23 00:09:32;;;;;;;;;;;;;;;16.42;89.64;99573.09;320108;30;1263;-80
2023/10/23 00:09:42;;;;;;;;;;;;;;;16.42;89.87;99573.09;320487;30;2976;-80
2023/10/23 00:09:52;;;;;;;;;;;;;;;16.43;89.73;99572.16;318166;30;3222;-80
2023/10/23 00:10:03;;;;;;;;;;;;;;;16.43;89.82;99569.50;317815;31;885;-80
2023/10/23 00:10:13;;;;;;;;;;;;;;;16.41;89.84;99568.75;319575;30;3501;-80
2023/10/23 00:10:23;;;;;;;;;;;;;;;16.41;89.81;99571.41;317462;30;2916;-80
2023/10/23 00:10:34;;;;;;;;;;;;;;;16.41;89.85;99566.97;318789;31;1051;-80
2023/10/23 00:10:44;;;;;;;;;;;;;;;16.41;89.80;99568.75;318020;30;2819;-80
2023/10/23 00:10:55;;;;;;;;;;;;;;;16.41;89.68;99574.03;316004;31;2568;-80
2023/10/23 00:11:05;;;;;;;;;;;;;;;16.42;89.71;99573.09;314795;30;1731;-80
2023/10/23 00:11:22;;;;;;;;;;;;;;;16.42;89.72;99573.09;317561;31;1249;-80
2023/10/23 00:11:32;;;;;;;;;;;;;;;16.44;89.95;99579.13;315646;31;1255;-80
2023/10/23 00:11:42;;;;;;;;;;;;;;;16.43;89.89;99574.78;310207;31;3736;-80
2023/10/23 00:11:53;;;;;;;;;;;;;;;16.43;89.94;99574.78;308789;31;5130;-80
2023/10/23 00:12:03;;;;;;;;;;;;;;;16.44;89.92;99576.47;311124;31;1230;-80
2023/10/23 00:12:13;;;;;;;;;;;;;;;16.43;89.93;99574.78;311001;31;4303;-80
2023/10/23 00:12:23;;;;;;;;;;;;;;;16.42;89.94;99567.81;307468;31;5192;-80
2023/10/23 00:12:34;;;;;;;;;;;;;;;16.42;90.01;99575.72;305531;32;876;-80
2023/10/23 00:12:44;;;;;;;;;;;;;;;16.41;89.97;99572.25;310604;31;4104;-80
2023/10/23 00:12:55;;;;;;;;;;;;;;;16.41;89.97;99576.69;311403;31;3868;-80
2023/10/23 00:13:05;;;;;;;;;;;;;;;16.41;90.08;99571.41;311236;31;1227;-80
2023/10/23 00:13:15;;;;;;;;;;;;;;;16.41;89.89;99574.03;304409;32;940;-80
2023/10/23 00:13:25;;;;;;;;;;;;;;;16.41;90.08;99571.41;301222;32;2670;-80
2023/10/23 00:13:36;;;;;;;;;;;;;;;16.40;90.02;99577.63;299338;32;4238;-80
2023/10/23 00:13:47;;;;;;;;;;;;;;;16.40;90.02;99575.84;299303;33;1283;-80
2023/10/23 00:13:57;;;;;;;;;;;;;;;16.42;89.93;99578.38;294463;33;5657;-80
2023/10/23 00:14:08;;;;;;;;;;;;;;;16.42;90.02;99573.09;292981;33;7467;-80
2023/10/23 00:14:19;;;;;;;;;;;;;;;16.42;89.95;99573.09;295425;33;875;-80
2023/10/23 00:14:29;;;;;;;;;;;;;;;16.41;90.14;99576.69;295224;33;7413;-80
2023/10/23 00:14:40;;;;;;;;;;;;;;;16.42;90.08;99573.09;290532;33;8009;-80
2023/10/23 00:14:50;;;;;;;;;;;;;;;16.42;90.08;99578.38;288643;34;1242;-80
2023/10/23 00:15:00;;;;;;;;;;;;;;;16.42;89.76;99578.38;283045;34;1237;-80
2023/10/23 00:15:10;;;;;;;;;;;;;;;16.40;89.94;99578.47;283487;34;5558;-80
2023/10/23 00:15:21;;;;;;;;;;;;;;;16.40;90.00;99575.84;279859;35;4835;-80
2023/10/23 00:15:32;;;;;;;;;;;;;;;16.41;90.01;99571.41;279545;35;818;-80
2023/10/23 00:15:42;;;;;;;;;;;;;;;16.41;89.88;99571.41;273927;35;4371;-80
2023/10/23 00:15:52;;;;;;;;;;;;;;;16.41;90.00;99576.69;269961;36;5823;-80
2023/10/23 00:16:03;;;;;;;;;;;;;;;16.40;90.10;99569.69;274026;36;1268;-80
2023/10/23 00:16:13;;;;;;;;;;;;;;;16.39;90.11;99578.56;273429;35;8778;-80
2023/10/23 00:18:44;;;;;;;;;;;;;;;16.32;90.39;99574.63;2486931;27;20220;-80
2023/10/23 00:18:54;;;;;;;;;;;;;;;16.30;90.60;99572.09;353262;28;882;-81
2023/10/23 00:19:04;;;;;;;;;;;;;;;16.29;90.25;99573.88;351971;28;823;-81
2023/10/23 00:19:15;;;;;;;;;;;;;;;16.28;90.50;99572.19;350988;28;1279;-81
2023/10/23 00:19:26;;;;;;;;;;;;;;;16.28;90.39;99574.84;349420;28;1330;-81
2023/10/23 00:19:36;;;;;;;;;;;;;;;16.28;90.62;99566.91;349116;28;1161;-81
2023/10/23 00:19:46;;;;;;;;;;;;;;;16.28;90.59;99574.84;350503;28;3326;-81
2023/10/23 00:19:57;;;;;;;;;;;;;;;16.29;90.55;99575.69;351225;28;1206;-81
2023/10/23 00:20:08;;;;;;;;;;;;;;;16.28;90.54;99572.19;350839;28;709;-81
2023/10/23 00:20:18;;;;;;;;;;;;;;;16.29;90.59;99576.53;351991;28;1240;-81
2023/10/23 00:20:28;;;;;;;;;;;;;;;16.29;90.60;99568.59;351834;28;1171;-81
2023/10/23 00:20:39;;;;;;;;;;;;;;;16.30;90.56;99572.94;351842;28;1399;-81
2023/10/23 00:20:49;;;;;;;;;;;;;;;16.28;90.55;99572.19;351517;28;1212;-81
2023/10/23 00:21:00;;;;;;;;;;;;;;;16.27;90.62;99575.78;347931;28;903;-81
2023/10/23 00:21:10;;;;;;;;;;;;;;;16.28;90.84;99576.63;348546;28;1271;-81
2023/10/23 00:21:20;;;;;;;;;;;;;;;16.27;90.62;99575.78;348616;28;1207;-81
2023/10/23 00:21:30;;;;;;;;;;;;;;;16.26;90.79;99579.38;346257;28;1201;-81
2023/10/23 00:21:42;;;;;;;;;;;;;;;16.25;90.84;99569.75;347856;28;1203;-81
2023/10/23 00:21:52;;;;;;;;;;;;;;;16.27;90.72;99575.78;347601;28;784;-81
2023/10/23 00:22:03;;;;;;;;;;;;;;;16.29;90.78;99573.88;349452;28;1211;-81
2023/10/23 00:22:13;;;;;;;;;;;;;;;16.28;90.74;99577.47;350650;28;1488;-81
2023/10/23 00:22:23;;;;;;;;;;;;;;;16.29;90.49;99568.59;350491;28;884;-81
2023/10/23 00:22:34;;;;;;;;;;;;;;;16.29;90.81;99578.31;350333;28;1281;-81
2023/10/23 00:22:44;;;;;;;;;;;;;;;16.28;90.50;99568.69;347902;28;1385;-81
2023/10/23 00:22:54;;;;;;;;;;;;;;;16.27;90.57;99570.50;346534;28;1268;-81
2023/10/23 00:23:04;;;;;;;;;;;;;;;16.26;90.61;99574.09;346563;28;1107;-81
2023/10/23 00:23:15;;;;;;;;;;;;;;;16.26;90.65;99576.72;349151;28;1311;-81
2023/10/23 00:23:26;;;;;;;;;;;;;;;16.27;90.42;99578.41;347860;28;1286;-81
2023/10/23 00:23:36;;;;;;;;;;;;;;;16.27;90.65;99573.13;347799;28;1148;-81
2023/10/23 00:23:47;;;;;;;;;;;;;;;16.26;90.54;99573.22;349011;28;776;-81
2023/10/23 00:23:57;;;;;;;;;;;;;;;16.25;90.67;99572.38;347706;28;1196;-81
2023/10/23 00:24:07;;;;;;;;;;;;;;;16.25;90.77;99566.25;346403;28;1319;-81
2023/10/23 00:24:17;;;;;;;;;;;;;;;16.25;90.91;99571.53;346308;28;1438;-81
2023/10/23 00:24:28;;;;;;;;;;;;;;;16.25;90.82;99574.19;343670;28;1201;-81
2023/10/23 00:24:38;;;;;;;;;;;;;;;16.24;90.77;99565.41;344638;28;1316;-81
2023/10/23 00:24:48;;;;;;;;;;;;;;;16.24;90.71;99568.06;342604;28;1162;-81
2023/10/23 00:24:58;;;;;;;;;;;;;;;16.26;90.66;99578.50;342364;28;1038;-81
2023/10/23 00:25:09;;;;;;;;;;;;;;;16.24;90.62;99573.34;343563;28;1221;-81
2023/10/23 00:25:19;;;;;;;;;;;;;;;16.23;90.90;99574.28;342090;28;1219;-81
2023/10/23 00:25:29;;;;;;;;;;;;;;;16.21;91.13;99570.88;341346;29;1195;-81
2023/10/23 00:25:39;;;;;;;;;;;;;;;16.21;90.99;99564.75;341890;28;885;-81
2023/10/23 00:25:50;;;;;;;;;;;;;;;16.19;90.97;99567.50;343631;28;1648;-81
2023/10/23 00:26:00;;;;;;;;;;;;;;;16.19;91.22;99574.56;341318;28;1316;-81
2023/10/23 00:26:10;;;;;;;;;;;;;;;16.18;91.13;99573.72;344821;28;936;-81
2023/10/23 00:26:20;;;;;;;;;;;;;;;16.18;91.42;99571.09;343412;28;1456;-81
2023/10/23 00:26:31;;;;;;;;;;;;;;;16.19;91.60;99559.56;344500;28;1071;-81
2023/10/23 00:26:41;;;;;;;;;;;;;;;16.19;91.57;99572.78;343582;28;1128;-81
2023/10/23 00:26:51;;;;;;;;;;;;;;;16.20;91.77;99569.19;343365;28;1447;-81
2023/10/23 00:27:01;;;;;;;;;;;;;;;16.20;91.55;99566.56;342342;28;1220;-81
2023/10/23 00:27:12;;;;;;;;;;;;;;;16.19;91.72;99567.50;341965;28;1196;-81
2023/10/23 00:27:22;;;;;;;;;;;;;;;16.19;91.77;99567.50;341207;28;2890;-81
2023/10/23 00:27:32;;;;;;;;;;;;;;;16.20;91.87;99569.19;340165;28;3420;-81
2023/10/23 00:27:42;;;;;;;;;;;;;;;16.20;91.86;99563.06;340613;28;3095;-81
2023/10/23 00:27:53;;;;;;;;;;;;;;;16.18;91.71;99570.25;340803;29;3300;-81
2023/10/23 00:28:03;;;;;;;;;;;;;;;16.19;91.89;99572.78;339802;29;1309;-81
2023/10/23 00:28:13;;;;;;;;;;;;;;;16.20;92.04;99568.34;337723;29;1231;-81
2023/10/23 00:28:23;;;;;;;;;;;;;;;16.20;91.96;99571.84;336159;29;1231;-80
2023/10/23 00:28:34;;;;;;;;;;;;;;;16.22;91.88;99571.75;336894;29;1303;-80
2023/10/23 00:28:44;;;;;;;;;;;;;;;16.23;91.91;99573.44;332363;29;1494;-80
2023/10/23 00:28:54;;;;;;;;;;;;;;;16.21;91.86;99570.03;328605;29;2000;-80
2023/10/23 00:29:05;;;;;;;;;;;;;;;16.21;91.76;99573.53;327217;30;1845;-80
2023/10/23 00:29:15;;;;;;;;;;;;;;;16.23;91.80;99576.91;328211;30;1276;-80
2023/10/23 00:29:26;;;;;;;;;;;;;;;16.20;92.01;99568.34;329613;29;1603;-80
2023/10/23 00:29:36;;;;;;;;;;;;;;;16.21;92.07;99570.03;328713;29;1832;-80
2023/10/23 00:29:46;;;;;;;;;;;;;;;16.19;92.16;99572.78;328312;30;1332;-80
2023/10/23 00:29:56;;;;;;;;;;;;;;;16.18;92.29;99570.25;331988;29;1659;-80
2023/10/23 00:30:07;;;;;;;;;;;;;;;16.19;92.28;99571.94;330750;29;1178;-80
2023/10/23 00:30:17;;;;;;;;;;;;;;;16.18;92.35;99575.53;329586;30;973;-80
2023/10/23 00:30:31;;;;;;;;;;;;;;;16.18;92.09;99575.53;330693;29;1481;-80
2023/10/23 00:30:42;;;;;;;;;;;;;;;16.19;92.13;99572.78;322445;30;1502;-80
2023/10/23 00:30:52;;;;;;;;;;;;;;;16.18;92.18;99572.88;322059;30;1940;-80
2023/10/23 00:31:02;;;;;;;;;;;;;;;16.18;92.06;99568.44;321106;30;1204;-80
2023/10/23 00:31:12;;;;;;;;;;;;;;;16.18;92.23;99567.59;324192;30;2016;-80
2023/10/23 00:31:23;;;;;;;;;;;;;;;16.19;92.07;99570.13;324319;30;2342;-80
2023/10/23 00:31:33;;;;;;;;;;;;;;;16.18;92.00;99565.81;321489;30;2460;-80
2023/10/23 00:31:43;;;;;;;;;;;;;;;16.19;92.10;99566.66;321112;30;1333;-80
2023/10/23 00:31:53;;;;;;;;;;;;;;;16.19;91.97;99569.28;319594;30;2364;-80
2023/10/23 00:32:04;;;;;;;;;;;;;;;16.18;92.00;99565.81;319865;30;1756;-80
2023/10/23 00:32:14;;;;;;;;;;;;;;;16.19;92.05;99578.06;321090;30;955;-80
2023/10/23 00:32:24;;;;;;;;;;;;;;;16.20;91.98;99569.19;320921;30;1274;-80
2023/10/23 00:32:35;;;;;;;;;;;;;;;16.21;91.78;99567.41;321651;30;1745;-80
2023/10/23 00:32:45;;;;;;;;;;;;;;;16.21;91.88;99565.59;318477;31;1303;-80
2023/10/23 00:32:55;;;;;;;;;;;;;;;16.21;91.85;99568.25;315256;31;2236;-80
2023/10/23 00:33:06;;;;;;;;;;;;;;;16.23;91.80;99569.00;314998;31;2991;-80
2023/10/23 00:33:16;;;;;;;;;;;;;;;16.25;91.75;99569.75;316436;31;1365;-80
2023/10/23 00:33:26;;;;;;;;;;;;;;;16.25;91.78;99566.25;312324;31;2751;-80
2023/10/23 00:33:37;;;;;;;;;;;;;;;16.24;91.78;99570.69;311470;31;3973;-80
2023/10/23 00:33:47;;;;;;;;;;;;;;;16.21;91.74;99570.03;310930;31;1296;-80
2023/10/23 00:33:57;;;;;;;;;;;;;;;16.21;91.81;99565.59;310428;31;3374;-80
2023/10/23 00:34:07;;;;;;;;;;;;;;;16.20;91.77;99569.19;306926;32;2989;-80
2023/10/23 00:34:18;;;;;;;;;;;;;;;16.17;91.87;99564.09;306360;32;1336;-80
2023/10/23 00:34:28;;;;;;;;;;;;;;;16.16;91.91;99564.22;303924;32;1228;-80
2023/10/23 00:34:38;;;;;;;;;;;;;;;16.14;92.01;99566.94;304435;32;2023;-80
2023/10/23 00:34:48;;;;;;;;;;;;;;;16.14;92.10;99569.59;304487;32;2632;-80
2023/10/23 00:34:59;;;;;;;;;;;;;;;16.13;92.10;99567.91;301263;32;1332;-80
2023/10/23 00:35:09;;;;;;;;;;;;;;;16.14;92.10;99564.31;298044;32;3331;-80
2023/10/23 00:35:19;;;;;;;;;;;;;;;16.13;92.14;99573.19;295095;32;3884;-81
2023/10/23 00:35:30;;;;;;;;;;;;;;;16.12;92.25;99568.84;298351;33;1328;-81
2023/10/23 00:35:40;;;;;;;;;;;;;;;16.13;92.50;99567.03;295490;33;4332;-81
2023/10/23 00:35:50;;;;;;;;;;;;;;;16.12;92.38;99571.47;293090;33;4449;-81
2023/10/23 00:36:00;;;;;;;;;;;;;;;16.13;92.48;99562.63;295284;33;1228;-81
2023/10/23 00:36:11;;;;;;;;;;;;;;;16.12;92.62;99565.34;296372;33;4245;-81
2023/10/23 00:36:21;;;;;;;;;;;;;;;16.11;92.92;99569.78;293302;33;3971;-81
2023/10/23 00:36:31;;;;;;;;;;;;;;;16.13;92.65;99567.03;294072;33;2882;-81
2023/10/23 00:36:41;;;;;;;;;;;;;;;16.13;92.77;99575.81;295558;33;3609;-81
2023/10/23 00:36:51;;;;;;;;;;;;;;;16.14;93.02;99564.31;294866;33;3338;-80
2023/10/23 00:37:03;;;;;;;;;;;;;;;16.16;92.82;99572.97;294084;33;1375;-80
2023/10/23 00:37:14;;;;;;;;;;;;;;;16.16;92.88;99567.69;287387;34;3514;-80
2023/10/23 00:37:24;;;;;;;;;;;;;;;16.16;92.79;99567.69;284961;34;5236;-80
2023/10/23 00:37:34;;;;;;;;;;;;;;;16.15;92.96;99566.00;282608;34;5716;-80
2023/10/23 00:37:44;;;;;;;;;;;;;;;16.16;92.79;99565.06;283855;34;1265;-80
2023/10/23 00:37:55;;;;;;;;;;;;;;;16.17;93.12;99571.19;280715;34;5678;-80
2023/10/23 00:38:05;;;;;;;;;;;;;;;16.15;93.16;99571.28;278401;35;6768;-80
2023/10/23 00:38:15;;;;;;;;;;;;;;;16.14;93.26;99569.59;279341;35;1228;-80
2023/10/23 00:38:28;;;;;;;;;;;;;;;16.13;92.85;99573.19;277307;35;6716;-80
2023/10/23 00:38:38;;;;;;;;;;;;;;;16.14;93.19;99569.59;272541;35;6628;-80
2023/10/23 00:38:49;;;;;;;;;;;;;;;16.14;93.16;99569.59;269991;36;4532;-80
2023/10/23 00:39:00;;;;;;;;;;;;;;;16.14;93.19;99568.75;269918;36;1382;-80
2023/10/23 00:39:10;;;;;;;;;;;;;;;16.15;93.13;99573.06;268141;36;6299;-80
2023/10/23 00:41:11;;;;;;;;;;;;;;;16.17;93.30;99577.31;2501354;27;20357;-80
2023/10/23 00:41:21;;;;;;;;;;;;;;;16.17;93.00;99573.81;354651;27;1185;-80
2023/10/23 00:41:31;;;;;;;;;;;;;;;16.18;93.13;99581.66;352003;28;1197;-80
2023/10/23 00:41:42;;;;;;;;;;;;;;;16.17;92.94;99585.25;348662;28;1204;-80
2023/10/23 00:41:52;;;;;;;;;;;;;;;16.18;93.04;99580.81;349321;28;1083;-80
2023/10/23 00:42:03;;;;;;;;;;;;;;;16.18;93.10;99579.00;351776;28;1407;-80
2023/10/23 00:42:13;;;;;;;;;;;;;;;16.18;93.03;99578.16;350424;28;1189;-80
2023/10/23 00:42:23;;;;;;;;;;;;;;;16.18;92.86;99584.28;350320;28;1320;-80
2023/10/23 00:42:33;;;;;;;;;;;;;;;16.19;93.00;99585.13;348910;28;1231;-80
2023/10/23 00:42:44;;;;;;;;;;;;;;;16.19;93.03;99583.34;350478;28;1215;-80
2023/10/23 00:42:54;;;;;;;;;;;;;;;16.18;92.89;99575.53;350307;28;1199;-80
2023/10/23 00:43:20;;;;;;;;;;;;;;;16.17;92.87;99582.59;347992;28;1313;-80
2023/10/23 00:43:30;;;;;;;;;;;;;;;16.17;92.99;99582.59;349211;28;1254;-80
2023/10/23 00:43:41;;;;;;;;;;;;;;;16.17;92.85;99585.25;350652;28;1058;-80
2023/10/23 00:43:51;;;;;;;;;;;;;;;16.17;92.85;99585.25;351054;28;895;-80
2023/10/23 00:44:02;;;;;;;;;;;;;;;16.19;92.86;99580.69;351851;28;1301;-80
2023/10/23 00:44:12;;;;;;;;;;;;;;;16.18;93.10;99586.94;349349;28;1373;-80
2023/10/23 00:44:22;;;;;;;;;;;;;;;16.17;93.03;99585.25;349480;28;1394;-80
2023/10/23 00:44:33;;;;;;;;;;;;;;;16.16;92.96;99588.81;349510;28;1359;-80
2023/10/23 00:44:43;;;;;;;;;;;;;;;16.15;93.12;99579.22;350386;28;1306;-80
2023/10/23 00:44:53;;;;;;;;;;;;;;;16.15;93.07;99596.84;346417;28;1112;-80
2023/10/23 00:45:04;;;;;;;;;;;;;;;16.14;93.13;99590.72;349157;28;1504;-80
2023/10/23 00:45:14;;;;;;;;;;;;;;;16.13;93.52;99588.16;350064;28;1377;-80
2023/10/23 00:45:24;;;;;;;;;;;;;;;16.11;93.16;99585.63;346946;28;1346;-80
2023/10/23 00:45:34;;;;;;;;;;;;;;;16.11;93.15;99585.63;350118;28;1324;-80
2023/10/23 00:46:05;;;;;;;;;;;;;;;16.12;93.38;99591.75;347704;28;2270;-80
2023/10/23 00:46:19;;;;;;;;;;;;;;;16.12;93.46;99595.25;343474;28;3546;-80
2023/10/23 00:46:30;;;;;;;;;;;;;;;16.13;93.41;99581.09;343548;28;3445;-80
2023/10/23 00:46:40;;;;;;;;;;;;;;;16.13;93.38;99590.81;344861;28;1264;-80
2023/10/23 00:46:51;;;;;;;;;;;;;;;16.12;93.34;99589.13;348793;28;1336;-80
2023/10/23 00:47:01;;;;;;;;;;;;;;;16.13;93.32;99583.72;347501;28;1110;-80
2023/10/23 00:47:11;;;;;;;;;;;;;;;16.14;93.52;99580.16;344901;28;1357;-80
2023/10/23 00:47:22;;;;;;;;;;;;;;;16.13;93.50;99598.72;344776;28;820;-80
2023/10/23 00:47:32;;;;;;;;;;;;;;;16.12;93.54;99597.88;343473;28;1279;-80
2023/10/23 00:47:42;;;;;;;;;;;;;;;16.14;93.45;99597.78;342134;28;1202;-80
2023/10/23 00:47:52;;;;;;;;;;;;;;;16.13;93.53;99594.28;345792;28;1216;-80
2023/10/23 00:48:03;;;;;;;;;;;;;;;16.12;93.41;99589.97;345970;28;866;-80
2023/10/23 00:48:13;;;;;;;;;;;;;;;16.13;93.40;99594.28;348028;28;1284;-80
2023/10/23 00:48:24;;;;;;;;;;;;;;;16.13;93.40;99588.16;346579;28;1200;-80
2023/10/23 00:48:34;;;;;;;;;;;;;;;16.14;93.40;99596.00;346437;28;907;-80
2023/10/23 00:48:45;;;;;;;;;;;;;;;16.13;93.33;99596.09;347238;28;1203;-80
2023/10/23 00:48:55;;;;;;;;;;;;;;;16.12;93.67;99600.53;345355;28;1203;-80
2023/10/23 00:49:05;;;;;;;;;;;;;;;16.12;93.44;99592.59;348029;28;1197;-80
2023/10/23 00:49:15;;;;;;;;;;;;;;;16.11;93.24;99593.53;348969;28;879;-79
2023/10/23 00:49:26;;;;;;;;;;;;;;;16.11;93.56;99595.34;346495;28;1250;-79
2023/10/23 00:49:36;;;;;;;;;;;;;;;16.10;93.57;99599.78;347447;28;1330;-79
2023/10/23 00:49:46;;;;;;;;;;;;;;;16.09;93.45;99594.59;345913;28;1517;-80
2023/10/23 00:49:57;;;;;;;;;;;;;;;16.10;93.68;99593.63;344773;28;1975;-80
2023/10/23 00:50:07;;;;;;;;;;;;;;;16.09;93.47;99597.22;344426;28;1313;-80
2023/10/23 00:50:18;;;;;;;;;;;;;;;16.07;93.58;99599.97;343818;28;869;-80
2023/10/23 00:50:28;;;;;;;;;;;;;;;16.07;93.62;99599.97;343727;28;1285;-80
2023/10/23 00:50:38;;;;;;;;;;;;;;;16.05;93.49;99596.56;343667;28;868;-80
2023/10/23 00:50:49;;;;;;;;;;;;;;;16.05;93.76;99595.72;341091;29;1267;-80
2023/10/23 00:51:00;;;;;;;;;;;;;;;16.06;93.69;99597.41;342398;28;1124;-80
2023/10/23 00:51:10;;;;;;;;;;;;;;;16.06;93.77;99593.00;339782;29;1241;-80
2023/10/23 00:51:20;;;;;;;;;;;;;;;16.06;93.63;99603.53;340823;28;1279;-80
2023/10/23 00:51:31;;;;;;;;;;;;;;;16.05;93.84;99601.00;338234;28;1430;-80
2023/10/23 00:51:41;;;;;;;;;;;;;;;16.06;93.92;99600.06;337331;29;1256;-80
2023/10/23 00:51:51;;;;;;;;;;;;;;;16.06;93.88;99598.28;334478;29;1695;-80
2023/10/23 00:52:01;;;;;;;;;;;;;;;16.06;93.72;99606.19;332273;29;1967;-80
2023/10/23 00:52:12;;;;;;;;;;;;;;;16.06;93.84;99597.41;335970;29;1353;-80
2023/10/23 00:52:23;;;;;;;;;;;;;;;16.08;93.67;99603.44;335607;29;1658;-80
2023/10/23 00:52:33;;;;;;;;;;;;;;;16.08;93.63;99601.66;333021;29;1321;-80
2023/10/23 00:52:44;;;;;;;;;;;;;;;16.08;93.71;99606.09;333032;29;1202;-80
2023/10/23 00:52:54;;;;;;;;;;;;;;;16.07;93.75;99597.31;332945;29;1036;-80
2023/10/23 00:53:04;;;;;;;;;;;;;;;16.06;93.60;99598.28;331739;29;1828;-80
2023/10/23 00:53:16;;;;;;;;;;;;;;;16.06;93.82;99597.41;330805;29;1303;-80
2023/10/23 00:53:27;;;;;;;;;;;;;;;16.06;93.87;99606.19;328680;30;950;-80
2023/10/23 00:53:38;;;;;;;;;;;;;;;16.07;93.78;99599.97;330489;29;2020;-80
2023/10/23 00:53:48;;;;;;;;;;;;;;;16.07;93.62;99602.59;330048;29;1805;-80
2023/10/23 00:53:59;;;;;;;;;;;;;;;16.06;93.71;99598.28;328433;30;915;-80
2023/10/23 00:54:09;;;;;;;;;;;;;;;16.07;93.72;99601.75;325710;30;2127;-80
2023/10/23 00:54:19;;;;;;;;;;;;;;;16.07;93.87;99599.13;329964;29;2559;-80
2023/10/23 00:54:31;;;;;;;;;;;;;;;16.06;93.71;99593.00;327262;30;1465;-80
2023/10/23 00:54:42;;;;;;;;;;;;;;;16.07;93.78;99604.41;327271;30;1338;-80
2023/10/23 00:54:52;;;;;;;;;;;;;;;16.06;93.87;99602.69;324375;30;1100;-80
2023/10/23 00:55:03;;;;;;;;;;;;;;;16.05;93.68;99601.84;323561;30;2587;-80
2023/10/23 00:55:14;;;;;;;;;;;;;;;16.07;93.57;99599.13;319958;30;3476;-79
2023/10/23 00:55:24;;;;;;;;;;;;;;;16.06;93.97;99602.69;322156;30;3338;-79
2023/10/23 00:55:34;;;;;;;;;;;;;;;16.07;93.91;99597.31;321280;30;3221;-79
2023/10/23 00:55:45;;;;;;;;;;;;;;;16.06;93.76;99603.53;319529;30;3422;-80
2023/10/23 00:55:56;;;;;;;;;;;;;;;16.07;93.74;99602.59;313320;31;1229;-80
2023/10/23 00:56:07;;;;;;;;;;;;;;;16.07;93.67;99605.25;313630;31;3683;-80
2023/10/23 00:56:18;;;;;;;;;;;;;;;16.07;93.90;99599.97;311569;31;3222;-80
2023/10/23 00:56:28;;;;;;;;;;;;;;;16.06;93.89;99600.91;309876;31;1396;-80
2023/10/23 00:56:39;;;;;;;;;;;;;;;16.06;93.77;99600.06;308173;31;2645;-80
2023/10/23 00:56:49;;;;;;;;;;;;;;;16.05;93.87;99604.50;311424;31;2278;-80
2023/10/23 00:56:59;;;;;;;;;;;;;;;16.04;93.91;99602.78;314077;31;1121;-80
2023/10/23 00:57:10;;;;;;;;;;;;;;;16.06;93.85;99607.97;315564;31;1856;-80
2023/10/23 00:57:20;;;;;;;;;;;;;;;16.05;93.88;99606.28;315284;31;2660;-80
2023/10/23 00:57:30;;;;;;;;;;;;;;;16.04;94.00;99605.44;312250;31;3732;-80
2023/10/23 00:57:41;;;;;;;;;;;;;;;16.03;94.00;99603.75;306533;32;1258;-80
2023/10/23 00:57:51;;;;;;;;;;;;;;;16.02;94.01;99604.72;305467;32;4436;-80
2023/10/23 00:58:01;;;;;;;;;;;;;;;16.02;94.21;99607.34;303321;32;4566;-80
2023/10/23 00:58:12;;;;;;;;;;;;;;;16.03;94.13;99611.66;305791;32;1361;-80
2023/10/23 00:58:25;;;;;;;;;;;;;;;16.03;93.78;99603.75;301668;32;4804;-80
2023/10/23 00:58:38;;;;;;;;;;;;;;;16.04;93.88;99600.16;300615;32;5202;-80
2023/10/23 00:58:48;;;;;;;;;;;;;;;16.03;93.91;99609.03;302019;32;3649;-80
2023/10/23 00:58:58;;;;;;;;;;;;;;;16.03;94.07;99608.22;302245;32;1029;-80
2023/10/23 00:59:09;;;;;;;;;;;;;;;16.03;93.97;99603.75;301345;32;3341;-80
2023/10/23 00:59:19;;;;;;;;;;;;;;;16.03;94.20;99603.75;301001;32;3057;-80
2023/10/23 00:59:30;;;;;;;;;;;;;;;16.03;94.07;99609.03;301731;32;1219;-80
2023/10/23 00:59:40;;;;;;;;;;;;;;;16.02;94.10;99606.50;297203;33;1275;-80
2023/10/23 00:59:50;;;;;;;;;;;;;;;16.02;94.14;99604.72;298493;32;5717;-80
2023/10/23 01:00:00;;;;;;;;;;;;;;;16.03;94.22;99603.75;298916;32;7526;-80
2023/10/23 01:00:11;;;;;;;;;;;;;;;16.04;93.95;99607.22;298447;33;1249;-80
2023/10/23 01:00:21;;;;;;;;;;;;;;;16.02;94.10;99602.09;292588;33;7344;-80
2023/10/23 01:00:32;;;;;;;;;;;;;;;16.02;93.88;99602.09;288118;33;6836;-79
2023/10/23 01:00:43;;;;;;;;;;;;;;;16.02;94.04;99612.63;287560;34;1297;-79